Latest Coastal Weather Observations for Melbourne (Olympic Park)

IDV60701

Issued at 11:21 pm EST Tuesday 21 April 2015 (issued every 10 minutes, with the page automatically refreshed every 10 minutes)

About coastal observations | Map of coastal stations | Coastal observations for VIC | Marine services | Other Formats
Station Details ID: 086338 Name: MELBOURNE (OLYMPIC PARK) Lat: -37.83 Lon: 144.98 Height: 7.53 m
Data from the previous 72 hours. | See also: Recent months at Melbourne (Olympic Park)
Date/Time
EST
Temp

°C
Wind Pressure Rain
since 9am
mm
Weather Cloud Vis
km
Sea
Height
m
Swell
Dir
 
Speed
knots
Gust
knots
hPa Trend Height
m
Period
s
Dir
21/11:00pm 11.4 SSE 4 8 1029.2 - 0.0 - - - - - - -
21/10:30pm 11.9 SSE 6 11 1029.4 - 0.0 - - - - - - -
21/10:00pm 12.1 SSE 4 7 1029.7 - 0.0 - - - - - - -
21/09:30pm 12.3 SSE 4 8 1029.6 - 0.0 - - - - - - -
21/09:00pm 12.9 SSE 6 9 1029.5 - 0.0 - - - - - - -
21/08:30pm 13.1 SSE 5 10 1029.4 - 0.0 - - - - - - -
21/08:00pm 13.6 SSE 5 9 1029.4 - 0.0 - - - - - - -
21/07:30pm 14.3 SSE 6 12 1029.7 - 0.0 - - - - - - -
21/07:00pm 14.4 SSE 5 11 1029.8 - 0.0 - - - - - - -
21/06:30pm 14.9 SSE 6 10 1029.6 - 0.0 - - - - - - -
21/06:00pm 15.1 SSE 6 11 1029.2 - 0.0 - - - - - - -
21/05:30pm 15.6 S 7 12 1029.1 - 0.0 - - - - - - -
21/05:00pm 16.3 S 8 13 1029.1 - 0.0 - - - - - - -
21/04:30pm 17.0 S 7 14 1029.2 - 0.0 - - - - - - -
21/04:00pm 17.1 SSE 7 13 1029.4 - 0.0 - - - - - - -
21/03:30pm 17.3 S 8 14 1029.4 - 0.0 - - - - - - -
21/03:00pm 17.2 SSE 8 13 1029.5 - 0.0 - - - - - - -
21/02:30pm 16.9 S 7 11 1029.5 - 0.0 - - - - - - -
21/02:00pm 17.2 SSE 7 13 1029.6 - 0.0 - - - - - - -
21/01:30pm 16.7 SSE 10 15 1030.0 - 0.0 - - - - - - -
21/01:00pm 16.4 SSE 9 15 1030.2 - 0.0 - - - - - - -
21/12:30pm 15.7 S 8 15 1030.8 - 0.0 - - - - - - -
21/12:00pm 15.2 SSW 6 12 1031.5 - 0.0 - - - - - - -
21/11:30am 15.7 SSE 8 15 1032.0 - 0.0 - - - - - - -
21/11:00am 16.2 SSE 8 14 1032.1 - 0.0 - - - - - - -
21/10:30am 15.3 SE 7 13 1032.4 - 0.0 - - - - - - -
21/10:00am 14.5 S 7 12 1032.6 - 0.0 - - - - - - -
21/09:30am 14.0 SSE 5 10 1032.9 - 0.0 - - - - - - -
21/09:00am 12.2 S 1 4 1033.2 - 0.0 - - - - - - -
21/08:30am 10.9 S 2 5 1033.4 - 0.0 - - - - - - -
21/08:00am 9.3 CALM 0 0 1033.4 - 0.0 - - - - - - -
21/07:30am 8.5 CALM 0 3 1033.3 - 0.0 - - - - - - -
21/07:00am 7.6 CALM 0 0 1033.4 - 0.0 - - - - - - -
21/06:30am 7.6 CALM 0 0 1033.3 - 0.0 - - - - - - -
21/06:00am 7.2 CALM 0 0 1033.2 - 0.0 - - - - - - -
21/05:30am 7.0 CALM 0 0 1032.9 - 0.0 - - - - - - -
21/05:00am 6.6 CALM 0 0 1032.7 - 0.0 - - - - - - -
21/04:30am 6.7 CALM 0 0 1032.7 - 0.0 - - - - - - -
21/04:00am 6.9 CALM 0 2 1032.7 - 0.0 - - - - - - -
21/03:30am 6.8 CALM 0 0 1032.9 - 0.0 - - - - - - -
21/03:00am 6.9 CALM 0 0 1033.3 - 0.0 - - - - - - -
21/02:30am 7.1 CALM 0 0 1033.6 - 0.0 - - - - - - -
21/02:00am 6.8 CALM 0 0 1034.0 - 0.0 - - - - - - -
21/01:30am 7.4 CALM 0 0 1034.2 - 0.0 - - - - - - -
21/01:00am 7.5 CALM 0 0 1034.4 - 0.0 - - - - - - -
21/12:30am 8.0 ESE 1 4 1034.5 - 0.0 - - - - - - -
21/12:00am 8.6 CALM 0 0 1034.8 - 0.0 - - - - - - -
 
Date/Time
EST
Temp

°C
Wind Pressure Rain
since 9am
mm
Weather Cloud Vis
km
Sea
Height
m
Swell
Dir
 
Speed
knots
Gust
knots
hPa Trend Height
m
Period
s
Dir
20/11:30pm 9.0 SE 1 4 1034.9 - 0.0 - - - - - - -
20/11:00pm 9.2 CALM 0 3 1035.2 - 0.0 - - - - - - -
20/10:30pm 9.7 SSE 2 5 1035.3 - 0.0 - - - - - - -
20/10:00pm 9.9 SSE 1 4 1035.5 - 0.0 - - - - - - -
20/09:30pm 10.9 SE 4 7 1035.4 - 0.0 - - - - - - -
20/09:00pm 11.2 SSE 4 8 1035.4 - 0.0 - - - - - - -
20/08:30pm 11.5 SSE 6 13 1035.3 - 0.0 - - - - - - -
20/08:00pm 11.7 SSE 6 9 1035.2 - 0.0 - - - - - - -
20/07:30pm 12.2 SSE 7 13 1035.1 - 0.0 - - - - - - -
20/07:00pm 12.5 SSE 7 13 1035.0 - 0.0 - - - - - - -
20/06:30pm 12.9 SSE 7 13 1034.8 - 0.0 - - - - - - -
20/06:00pm 13.4 SSE 8 13 1034.7 - 0.0 - - - - - - -
20/05:30pm 13.8 SSE 8 16 1034.5 - 0.0 - - - - - - -
20/05:00pm 14.4 SSE 9 14 1034.4 - 0.0 - - - - - - -
20/04:30pm 14.9 SSE 8 16 1034.3 - 0.0 - - - - - - -
20/04:00pm 14.8 SSE 9 20 1034.3 - 0.0 - - - - - - -
20/03:30pm 14.7 SSE 9 16 1034.3 - 0.0 - - - - - - -
20/03:00pm 15.4 SSE 10 18 1034.2 - 0.0 - - - - - - -
20/02:30pm 15.0 SSE 10 16 1034.3 - 0.0 - - - - - - -
20/02:00pm 15.8 SSE 9 17 1034.5 - 0.0 - - - - - - -
20/01:30pm 15.3 S 8 14 1034.6 - 0.0 - - - - - - -
20/01:00pm 15.2 S 7 11 1034.7 - 0.0 - - - - - - -
20/12:30pm 14.9 SSE 9 19 1035.2 - 0.0 - - - - - - -
20/12:00pm 14.7 SSE 9 14 1035.8 - 0.0 - - - - - - -
20/11:30am 14.1 SSE 9 15 1036.5 - 0.0 - - - - - - -
20/11:00am 14.6 SSE 9 16 1036.6 - 0.0 - - - - - - -
20/10:30am 14.3 SSE 8 13 1036.9 - 0.0 - - - - - - -
20/10:00am 13.7 SSE 8 13 1036.9 - 0.0 - - - - - - -
20/09:30am 13.2 SSE 7 13 1037.0 - 0.0 - - - - - - -
20/09:00am 12.4 SE 6 13 1037.0 - 1.4 - - - - - - -
20/08:30am 11.7 ESE 6 9 1037.1 - 1.4 - - - - - - -
20/08:00am 9.2 CALM 0 0 1036.9 - 1.4 - - - - - - -
20/07:30am 7.8 CALM 0 0 1036.6 - 1.4 - - - - - - -
20/07:00am 7.9 CALM 0 0 1036.3 - 1.4 - - - - - - -
20/06:30am 7.7 S 3 5 1036.0 - 1.4 - - - - - - -
20/06:00am 7.0 CALM 0 0 1035.9 - 1.4 - - - - - - -
20/05:30am 7.7 SE 1 4 1035.6 - 1.4 - - - - - - -
20/05:00am 7.3 SSE 2 5 1035.3 - 1.4 - - - - - - -
20/04:30am 8.0 SSE 4 6 1035.0 - 1.4 - - - - - - -
20/04:00am 7.7 CALM 0 4 1034.9 - 1.4 - - - - - - -
20/03:30am 8.5 SSE 1 3 1034.7 - 1.4 - - - - - - -
20/03:00am 9.5 SSE 4 6 1034.7 - 1.4 - - - - - - -
20/02:30am 10.3 SE 5 7 1034.8 - 1.4 - - - - - - -
20/02:00am 9.5 S 2 5 1034.8 - 1.4 - - - - - - -
20/01:30am 10.7 SSE 5 8 1034.9 - 1.4 - - - - - - -
20/01:00am 11.1 SSE 4 8 1034.8 - 1.4 - - - - - - -
20/12:30am 10.6 SSE 4 6 1034.9 - 1.4 - - - - - - -
20/12:00am 11.2 SSE 5 8 1035.0 - 1.4 - - - - - - -
 
Date/Time
EST
Temp

°C
Wind Pressure Rain
since 9am
mm
Weather Cloud Vis
km
Sea
Height
m
Swell
Dir
 
Speed
knots
Gust
knots
hPa Trend Height
m
Period
s
Dir
19/11:30pm 11.8 SSE 6 11 1035.1 - 1.4 - - - - - - -
19/11:00pm 11.4 SSE 4 9 1035.0 - 1.4 - - - - - - -
19/10:30pm 11.6 SSE 5 11 1034.9 - 1.4 - - - - - - -
19/10:00pm 11.8 SSE 7 11 1034.9 - 1.4 - - - - - - -
19/09:30pm 11.8 S 7 13 1034.5 - 1.4 - - - - - - -
19/09:00pm 11.9 SSE 7 12 1034.3 - 1.4 - - - - - - -
19/08:30pm 12.0 SSE 7 14 1033.9 - 1.4 - - - - - - -
19/08:00pm 12.2 SSE 7 11 1033.6 - 1.4 - - - - - - -
19/07:30pm 12.4 SSE 8 13 1033.2 - 1.4 - - - - - - -
19/07:00pm 12.3 SSE 9 15 1032.8 - 1.4 - - - - - - -
19/06:30pm 11.8 SSE 7 12 1032.3 - 1.4 - - - - - - -
19/06:00pm 12.6 S 8 14 1031.8 - 1.4 - - - - - - -
19/05:30pm 12.4 SSE 7 13 1031.5 - 1.4 - - - - - - -
19/05:00pm 12.0 S 8 15 1031.1 - 1.4 - - - - - - -
19/04:30pm 12.8 SSE 9 22 1030.7 - 1.4 - - - - - - -
19/04:00pm 12.9 S 6 12 1030.3 - 1.4 - - - - - - -
19/03:30pm 12.8 SSE 10 17 1030.2 - 1.4 - - - - - - -
19/03:00pm 11.2 S 6 11 1030.2 - 1.4 Recent precip. - - - - - -
19/02:30pm 12.5 SSE 12 30 1030.0 - 1.0 - - - - - - -
19/02:00pm 13.4 S 10 18 1029.3 - 1.0 - - - - - - -
19/01:30pm 13.8 S 10 20 1028.8 - 1.0 - - - - - - -
19/01:00pm 13.7 S 10 20 1028.6 - 1.0 - - - - - - -
19/12:30pm 11.6 S 10 20 1028.5 - 1.0 - - - - - - -
19/12:15pm 11.1 S 12 26 1028.5 - 0.4 - - - - - - -
19/12:00pm 14.1 SSE 9 18 1028.2 - 0.0 - - - - - - -
19/11:30am 12.1 SSE 8 15 1028.2 - 0.0 - - - - - - -
19/11:00am 14.1 S 9 15 1027.7 - 0.0 - - - - - - -
19/10:30am 13.0 S 7 14 1027.4 - 0.0 - - - - - - -
19/10:00am 11.6 W 8 14 1027.0 - 0.0 - - - - - - -
19/09:30am 11.7 WSW 5 12 1026.6 - 0.0 - - - - - - -
19/09:00am 9.9 W 8 15 1026.5 - 6.4 Recent precip. - - - - - -
19/08:30am 10.5 SW 7 15 1025.5 - 6.4 - - - - - - -
19/08:00am 10.5 SW 6 14 1025.0 - 6.0 - - - - - - -
19/07:30am 9.8 W 4 8 1024.3 - 5.8 - - - - - - -
19/07:00am 10.1 SSW 9 15 1023.7 - 5.6 - - - - - - -
19/06:30am 9.8 WSW 6 13 1023.1 - 4.8 - - - - - - -
19/06:00am 9.8 W 5 9 1022.3 - 4.6 Rain - - - - - -
19/05:30am 9.7 W 6 10 1021.9 - 3.6 - - - - - - -
19/05:00am 9.9 W 6 10 1021.3 - 3.6 - - - - - - -
19/04:30am 10.1 WSW 5 11 1020.8 - 3.6 - - - - - - -
19/04:00am 10.5 W 5 11 1020.3 - 3.6 - - - - - - -
19/03:30am 10.5 W 5 9 1019.9 - 3.6 - - - - - - -
19/03:00am 10.5 W 5 9 1019.8 - 3.6 - - - - - - -
19/02:30am 10.7 W 5 9 1019.6 - 3.6 - - - - - - -
19/02:00am 10.9 WSW 5 10 1019.3 - 3.6 - - - - - - -
19/01:30am 11.0 WSW 5 8 1019.2 - 3.6 - - - - - - -
19/01:00am 11.3 WSW 4 9 1018.9 - 3.6 - - - - - - -
19/12:30am 11.5 W 4 8 1018.6 - 3.6 - - - - - - -
19/12:00am 11.7 WNW 3 7 1018.2 - 3.6 - - - - - - -
 
Date/Time
EST
Temp

°C
Wind Pressure Rain
since 9am
mm
Weather Cloud Vis
km
Sea
Height
m
Swell
Dir
 
Speed
knots
Gust
knots
hPa Trend Height
m
Period
s
Dir
18/11:30pm 11.6 WNW 3 7 1018.3 - 3.6 - - - - - - -

Other Formats:

Comma delimited format used in spreadsheet applications
http://www.bom.gov.au/fwo/IDV60701/IDV60701.95936.axf

JavaScript Object Notation format (JSON) in row-major order
http://www.bom.gov.au/fwo/IDV60701/IDV60701.95936.json